Time;durP1;ratioP1;P1;durP2;ratioP2;P2;SDS_P1;SDS_P2;PMS_P1;PMS_P2;Temp;Humidity;BMP_temperature;BMP_pressure;BME280_temperature;BME280_humidity;BME280_pressure;Samples;Min_cycle;Max_cycle;Signal;HPM_P1;HPM_P2
2022/01/22 00:02:19;;;;;;;10.43;3.40;;;14.60;73.90;;;;;;4165269;28;20576;-67
2022/01/22 00:04:41;;;;;;;35.72;10.40;;;14.60;74.00;;;;;;4158821;28;20069;-68
2022/01/22 00:07:06;;;;;;;11.93;3.63;;;14.50;74.00;;;;;;4158624;28;20068;-68
2022/01/22 00:09:48;;;;;;;16.52;4.75;;;14.50;74.20;;;;;;4190736;28;20052;-67
2022/01/22 00:12:22;;;;;;;11.63;2.25;;;14.50;74.90;;;;;;4158818;28;20060;-67
2022/01/22 00:14:44;;;;;;;16.35;5.10;;;14.60;75.20;;;;;;4157693;28;20053;-67
2022/01/22 00:17:08;;;;;;;12.52;3.58;;;14.60;75.10;;;;;;4158972;28;20489;-68
2022/01/22 00:19:30;;;;;;;13.05;2.45;;;14.70;75.00;;;;;;4159306;28;20034;-68
2022/01/22 00:21:53;;;;;;;14.70;2.90;;;14.70;75.20;;;;;;4159634;28;20068;-67
2022/01/22 00:24:15;;;;;;;7.95;1.85;;;14.70;74.80;;;;;;4158938;28;20057;-67
2022/01/22 00:26:37;;;;;;;7.88;1.67;;;14.80;74.70;;;;;;4158979;28;20455;-67
2022/01/22 00:28:59;;;;;;;11.32;2.83;;;14.80;74.50;;;;;;4180115;28;20049;-67
2022/01/22 00:31:21;;;;;;;8.35;2.08;;;14.80;74.40;;;;;;4173595;28;20493;-67
2022/01/22 00:33:45;;;;;;;9.90;1.92;;;14.90;74.30;;;;;;4173910;28;20053;-67
2022/01/22 00:36:07;;;;;;;5.55;1.58;;;14.90;74.10;;;;;;4175177;28;20107;-66
2022/01/22 00:38:29;;;;;;;4.55;1.73;;;14.90;74.10;;;;;;4185847;28;20043;-68
2022/01/22 00:40:51;;;;;;;4.93;1.38;;;14.90;74.30;;;;;;4178757;28;20464;-67
2022/01/22 00:43:14;;;;;;;4.68;1.27;;;15.00;74.30;;;;;;4172933;28;20134;-67
2022/01/22 00:45:36;;;;;;;3.47;1.00;;;15.00;73.80;;;;;;4174971;28;20045;-67
2022/01/22 00:47:58;;;;;;;2.83;0.77;;;15.10;73.50;;;;;;4180961;28;20052;-67
2022/01/22 00:50:24;;;;;;;2.67;0.70;;;15.20;73.20;;;;;;4181549;28;20045;-67
2022/01/22 00:52:47;;;;;;;2.08;0.63;;;15.20;73.00;;;;;;4175402;28;20045;-67
2022/01/22 00:55:11;;;;;;;3.90;1.08;;;15.20;72.90;;;;;;4174802;28;20044;-68
2022/01/22 00:57:33;;;;;;;1.45;0.98;;;15.20;72.70;;;;;;4175249;28;20476;-67
2022/01/22 00:59:55;;;;;;;1.70;1.00;;;15.20;72.70;;;;;;4173580;28;20126;-67
2022/01/22 01:02:17;;;;;;;3.28;1.10;;;15.20;72.90;;;;;;4174851;28;20059;-67
2022/01/22 01:04:39;;;;;;;3.90;1.15;;;15.30;72.90;;;;;;4173719;28;20037;-67
2022/01/22 01:07:04;;;;;;;4.45;1.35;;;15.40;72.30;;;;;;4174741;28;20051;-67
2022/01/22 01:09:26;;;;;;;3.50;0.85;;;15.50;71.90;;;;;;4172083;28;20044;-67
2022/01/22 01:11:52;;;;;;;4.30;1.00;;;15.50;71.50;;;;;;4180619;28;20441;-68
2022/01/22 01:14:20;;;;;;;6.07;1.73;;;15.60;71.30;;;;;;4190134;28;20119;-67
2022/01/22 01:16:57;;;;;;;4.85;1.13;;;15.60;71.10;;;;;;4192965;28;20057;-67
2022/01/22 01:32:48;;;;;;;2.70;0.73;;;15.40;72.10;;;;;;4192888;28;20032;-67
2022/01/22 01:35:11;;;;;;;4.30;1.17;;;15.30;72.20;;;;;;4192474;28;20189;-67
2022/01/22 01:37:33;;;;;;;4.65;1.08;;;15.30;72.60;;;;;;4192543;28;20063;-67
2022/01/22 01:40:01;;;;;;;6.18;1.75;;;15.20;72.60;;;;;;4180685;28;20060;-67
2022/01/22 01:42:32;;;;;;;6.57;1.42;;;15.20;72.70;;;;;;4176242;28;20048;-67
2022/01/22 01:44:57;;;;;;;;;;;15.20;72.80;;;;;;4176650;28;20170;-67
2022/01/22 01:47:40;;;;;;;5.90;1.73;;;15.20;73.00;;;;;;4176064;28;20007;-66
2022/01/22 01:50:02;;;;;;;5.13;1.77;;;15.20;73.20;;;;;;4189302;28;20132;-68
2022/01/22 01:52:35;;;;;;;4.55;1.30;;;15.20;73.30;;;;;;4192831;28;20155;-67
2022/01/22 01:55:08;;;;;;;4.47;1.30;;;15.20;73.10;;;;;;4191988;28;20064;-66
2022/01/22 01:57:38;;;;;;;7.60;2.10;;;15.30;72.80;;;;;;4192295;28;20140;-66
2022/01/22 02:00:06;;;;;;;5.68;1.23;;;15.30;72.50;;;;;;4176987;28;20404;-66
2022/01/22 02:02:39;;;;;;;8.43;1.77;;;15.40;72.30;;;;;;4176975;28;20049;-67
2022/01/22 02:05:01;;;;;;;7.65;1.30;;;15.40;72.10;;;;;;4176273;28;20405;-66
2022/01/22 02:07:24;;;;;;;5.18;1.20;;;15.50;71.90;;;;;;4177269;28;20488;-66
2022/01/22 02:09:58;;;;;;;6.95;1.65;;;15.50;72.00;;;;;;4175714;28;20041;-66
2022/01/22 02:12:42;;;;;;;4.60;1.25;;;15.50;71.90;;;;;;4174787;28;20044;-66
2022/01/22 02:23:36;;;;;;;5.25;1.55;;;15.50;72.10;;;;;;4192189;28;20048;-66
2022/01/22 02:25:58;;;;;;;7.28;1.55;;;15.40;72.20;;;;;;4185358;28;20172;-65
2022/01/22 02:28:24;;;;;;;9.48;1.73;;;15.40;72.30;;;;;;4175569;28;20140;-65
2022/01/22 02:30:49;;;;;;;7.50;1.70;;;15.40;72.50;;;;;;4175202;28;20049;-65
2022/01/22 02:33:33;;;;;;;5.87;1.40;;;15.40;72.70;;;;;;4184611;28;20044;-66
2022/01/22 02:36:00;;;;;;;4.05;1.30;;;15.40;72.70;;;;;;4182082;28;20296;-65
2022/01/22 02:38:32;;;;;;;4.78;1.20;;;15.40;72.60;;;;;;4174654;28;20052;-65
2022/01/22 02:40:54;;;;;;;6.25;1.08;;;15.40;72.60;;;;;;4189209;28;20044;-66
2022/01/22 02:43:18;;;;;;;5.18;1.25;;;15.40;72.60;;;;;;4176459;28;20102;-65
2022/01/22 02:45:41;;;;;;;2.60;0.77;;;15.30;72.40;;;;;;4178467;28;20707;-66
2022/01/22 02:48:03;;;;;;;3.53;0.85;;;15.30;72.50;;;;;;4176706;28;20048;-66
2022/01/22 02:50:25;;;;;;;3.20;0.80;;;15.30;72.80;;;;;;4175232;28;20053;-65
2022/01/22 02:52:48;;;;;;;2.67;1.08;;;15.30;72.80;;;;;;4175059;28;20551;-65
2022/01/22 02:55:12;;;;;;;7.25;1.40;;;15.40;72.60;;;;;;4175210;28;20045;-65
2022/01/22 02:57:35;;;;;;;8.55;1.55;;;15.40;72.50;;;;;;4188246;28;20048;-65
2022/01/22 02:59:59;;;;;;;4.78;1.58;;;15.40;72.50;;;;;;4191638;28;20063;-65
2022/01/22 03:02:21;;;;;;;2.58;1.70;;;15.40;72.50;;;;;;4174788;28;20053;-65
2022/01/22 03:04:44;;;;;;;2.38;1.33;;;15.30;72.50;;;;;;4165382;28;20083;-65
2022/01/22 03:07:06;;;;;;;3.72;0.98;;;15.40;72.60;;;;;;4193102;28;20400;-65
2022/01/22 03:09:32;;;;;;;5.55;1.58;;;15.30;72.80;;;;;;4191396;28;20135;-65
2022/01/22 03:12:15;;;;;;;6.32;1.27;;;15.30;72.70;;;;;;4192603;28;20055;-65
2022/01/22 03:17:55;;;;;;;7.35;1.50;;;15.30;73.00;;;;;;4176234;28;20468;-65
2022/01/22 03:20:34;;;;;;;9.40;2.05;;;15.30;73.00;;;;;;4176141;28;20400;-65
2022/01/22 03:23:07;;;;;;;9.40;1.42;;;15.30;73.10;;;;;;4174669;28;20056;-65
2022/01/22 03:28:14;;;;;;;3.95;0.80;;;15.30;73.20;;;;;;4187055;28;20047;-65
2022/01/22 03:30:36;;;;;;;2.95;0.90;;;15.20;73.20;;;;;;4190909;28;20033;-65
2022/01/22 03:32:58;;;;;;;7.70;1.52;;;15.20;73.30;;;;;;4191138;28;20135;-65
2022/01/22 03:35:27;;;;;;;5.55;1.00;;;15.30;74.30;;;;;;4182390;28;20053;-64
2022/01/22 03:37:55;;;;;;;6.18;1.50;;;15.30;73.40;;;;;;4174102;28;20045;-65
2022/01/22 03:40:21;;;;;;;5.15;1.17;;;15.40;74.10;;;;;;4187209;28;20055;-64
2022/01/22 03:42:43;;;;;;;5.18;1.20;;;15.50;72.90;;;;;;4159476;28;20053;-65
2022/01/22 03:45:10;;;;;;;4.55;1.05;;;15.60;72.20;;;;;;4159488;28;20149;-65
2022/01/22 03:47:33;;;;;;;7.53;1.33;;;15.70;71.60;;;;;;4172058;28;20064;-64
2022/01/22 03:49:56;;;;;;;12.02;1.50;;;15.80;71.20;;;;;;4177110;28;20052;-65
2022/01/22 03:52:19;;;;;;;3.83;1.45;;;15.90;70.90;;;;;;4162168;28;20049;-65
2022/01/22 03:54:41;;;;;;;6.70;1.42;;;15.90;70.80;;;;;;4171602;28;20094;-65
2022/01/22 03:57:04;;;;;;;4.88;1.08;;;15.90;70.80;;;;;;4157316;28;20049;-64
2022/01/22 03:59:36;;;;;;;7.53;1.27;;;15.90;70.90;;;;;;4161308;28;20038;-65
2022/01/22 04:05:00;;;;;;;9.38;1.45;;;15.80;71.00;;;;;;4150956;28;20049;-65
2022/01/22 04:10:05;;;;;;;3.92;1.00;;;15.80;70.90;;;;;;4158920;28;20045;-65
2022/01/22 04:12:34;;;;;;;3.80;1.23;;;15.80;71.20;;;;;;4171487;28;20051;-65
2022/01/22 04:15:01;;;;;;;2.67;0.68;;;15.70;71.50;;;;;;4191595;28;20055;-65
2022/01/22 04:17:39;;;;;;;3.42;1.15;;;15.70;71.70;;;;;;4190300;28;20150;-64
2022/01/22 04:25:34;;;;;;;4.55;0.80;;;15.80;71.60;;;;;;4176988;28;20091;-65
2022/01/22 04:27:57;;;;;;;5.05;1.00;;;15.90;71.00;;;;;;4175141;28;20045;-65
2022/01/22 04:30:19;;;;;;;6.40;1.40;;;15.90;70.70;;;;;;4175398;28;20053;-64
2022/01/22 04:32:43;;;;;;;2.90;0.88;;;16.00;70.60;;;;;;4175325;28;20131;-64
2022/01/22 04:35:06;;;;;;;3.90;0.77;;;16.00;70.50;;;;;;4175248;28;20140;-65
2022/01/22 04:37:29;;;;;;;6.47;1.08;;;16.00;70.40;;;;;;4166524;28;20049;-64
2022/01/22 04:39:51;;;;;;;4.05;1.13;;;15.90;70.50;;;;;;4158819;28;20453;-65
2022/01/22 04:42:14;;;;;;;4.60;0.90;;;15.90;70.70;;;;;;4158971;28;20473;-65
2022/01/22 04:44:43;;;;;;;8.15;1.05;;;15.80;70.70;;;;;;4175757;28;20053;-64
2022/01/22 04:47:18;;;;;;;4.20;0.88;;;15.80;70.90;;;;;;4191697;28;20132;-65
2022/01/22 04:55:04;;;;;;;3.10;0.93;;;15.70;71.60;;;;;;4175268;28;20052;-65
2022/01/22 04:57:29;;;;;;;5.47;1.17;;;15.70;71.70;;;;;;4177261;28;20075;-64
2022/01/22 04:59:51;;;;;;;2.42;0.77;;;15.70;71.60;;;;;;4176772;28;20135;-65
2022/01/22 05:02:13;;;;;;;1.35;0.52;;;15.70;71.60;;;;;;4177236;28;20048;-64
2022/01/22 05:04:48;;;;;;;2.10;0.45;;;15.70;71.50;;;;;;4189535;28;20505;-64
2022/01/22 05:07:30;;;;;;;4.10;0.60;;;15.80;71.60;;;;;;4192542;28;20044;-64
2022/01/22 05:10:25;;;;;;;2.90;0.77;;;15.70;71.60;;;;;;4186348;28;20126;-64
2022/01/22 05:12:47;;;;;;;2.60;0.85;;;15.80;71.50;;;;;;4193697;28;20131;-64
2022/01/22 05:15:10;;;;;;;1.63;0.63;;;15.80;71.40;;;;;;4179491;28;20060;-64
2022/01/22 05:17:36;;;;;;;2.80;1.23;;;15.80;71.20;;;;;;4177277;28;20128;-64
2022/01/22 05:20:11;;;;;;;8.25;1.27;;;15.90;71.20;;;;;;4176761;28;20127;-64
2022/01/22 05:22:49;;;;;;;1.48;0.82;;;15.80;71.20;;;;;;4176024;28;20056;-64
2022/01/22 05:25:32;;;;;;;1.67;0.90;;;15.90;71.30;;;;;;4177930;28;20594;-62
2022/01/22 05:31:23;;;;;;;5.60;1.25;;;15.90;72.00;;;;;;4134401;28;20061;-66
2022/01/22 05:36:59;;;;;;;2.38;0.70;;;15.90;71.60;;;;;;4173895;28;20132;-65
2022/01/22 05:39:22;;;;;;;4.50;1.30;;;15.80;71.80;;;;;;4169445;28;20535;-67
2022/01/22 05:41:43;;;;;;;4.05;1.58;;;15.80;72.00;;;;;;4193939;28;20049;-66
2022/01/22 05:44:06;;;;;;;3.40;1.33;;;15.80;72.00;;;;;;4194385;28;20473;-66
2022/01/22 05:46:28;;;;;;;4.18;1.40;;;15.90;71.90;;;;;;4192656;28;20796;-66
2022/01/22 05:48:51;;;;;;;6.03;1.38;;;15.90;71.80;;;;;;4170230;28;20500;-66
2022/01/22 05:51:15;;;;;;;2.55;1.17;;;15.90;71.70;;;;;;4177968;28;20118;-66
2022/01/22 05:53:49;;;;;;;0.88;0.80;;;15.90;71.60;;;;;;4176063;28;20052;-66
2022/01/22 06:01:34;;;;;;;;;;;15.90;71.60;;;;;;4192420;28;20416;-65
2022/01/22 06:04:07;;;;;;;6.53;1.30;;;15.80;71.70;;;;;;4192771;28;19966;-65
2022/01/22 06:06:29;;;;;;;4.72;1.13;;;15.80;71.80;;;;;;4160842;28;20057;-66
2022/01/22 06:08:57;;;;;;;4.28;2.25;;;15.80;72.30;;;;;;4205170;28;20070;-66
2022/01/22 06:11:26;;;;;;;4.25;1.17;;;15.80;72.50;;;;;;4191672;28;20569;-66
2022/01/22 06:13:49;;;;;;;7.72;1.27;;;15.80;72.30;;;;;;4192346;28;20460;-66
2022/01/22 06:16:21;;;;;;;5.35;1.38;;;15.90;72.00;;;;;;4192224;28;20049;-66
2022/01/22 06:19:00;;;;;;;7.03;1.40;;;16.00;71.70;;;;;;4159507;28;20044;-65
2022/01/22 06:21:22;;;;;;;5.30;1.63;;;16.00;71.50;;;;;;4159766;28;20505;-65
2022/01/22 06:23:45;;;;;;;5.25;1.45;;;16.00;71.40;;;;;;4175318;28;20420;-65
2022/01/22 06:26:11;;;;;;;4.93;1.50;;;15.90;71.30;;;;;;4176113;28;20037;-66
2022/01/22 06:28:35;;;;;;;6.07;1.48;;;15.90;71.40;;;;;;4189823;28;20046;-65
2022/01/22 06:30:58;;;;;;;4.97;1.23;;;15.90;72.40;;;;;;4192473;28;20059;-65
2022/01/22 06:33:21;;;;;;;5.82;1.05;;;15.80;71.90;;;;;;4192385;28;20458;-64
2022/01/22 06:35:43;;;;;;;4.60;1.30;;;15.80;72.20;;;;;;4191854;28;20040;-64
2022/01/22 06:38:08;;;;;;;4.22;1.13;;;15.80;72.10;;;;;;4191719;28;20090;-65
2022/01/22 06:43:52;;;;;;;3.90;1.80;;;15.90;72.10;;;;;;4160043;28;20050;-65
2022/01/22 06:46:23;;;;;;;7.97;2.08;;;15.90;71.90;;;;;;4187205;28;20133;-65
2022/01/22 06:48:57;;;;;;;4.38;1.33;;;15.90;71.80;;;;;;4173135;28;20049;-65
2022/01/22 06:51:28;;;;;;;2.20;1.20;;;15.90;71.80;;;;;;4158324;28;20100;-65
2022/01/22 06:53:53;;;;;;;4.38;1.50;;;15.80;71.70;;;;;;4158941;28;20049;-65
2022/01/22 06:56:19;;;;;;;7.05;1.52;;;15.80;72.00;;;;;;4166634;28;20051;-64
2022/01/22 06:59:02;;;;;;;3.53;0.90;;;15.90;71.90;;;;;;4169346;28;20059;-64
2022/01/22 07:01:25;;;;;;;3.35;0.85;;;16.00;71.60;;;;;;4175360;28;20118;-64
2022/01/22 07:03:54;;;;;;;2.60;0.93;;;16.00;71.10;;;;;;4174366;28;20126;-65
2022/01/22 07:06:45;;;;;;;4.90;1.20;;;16.10;70.90;;;;;;4162591;28;20048;-65
2022/01/22 07:09:07;;;;;;;2.60;0.82;;;16.10;71.00;;;;;;4174305;28;20043;-64
2022/01/22 07:11:32;;;;;;;1.90;0.80;;;16.10;71.00;;;;;;4172808;28;20049;-64
2022/01/22 07:13:54;;;;;;;3.35;1.10;;;16.00;71.10;;;;;;4163323;28;20047;-65
2022/01/22 07:16:18;;;;;;;3.25;0.75;;;16.00;72.10;;;;;;4174854;28;20065;-65
2022/01/22 07:18:46;;;;;;;4.82;1.30;;;15.90;71.00;;;;;;4160566;28;20378;-65
2022/01/22 07:21:16;;;;;;;1.33;1.10;;;15.90;71.70;;;;;;4175608;28;20048;-65
2022/01/22 07:26:27;;;;;;;4.28;1.75;;;15.90;71.70;;;;;;4140526;28;20460;-65
2022/01/22 07:29:12;;;;;;;4.13;1.27;;;16.00;71.60;;;;;;4169677;28;20064;-65
2022/01/22 07:31:37;;;;;;;5.90;1.15;;;15.90;71.40;;;;;;4174858;28;20524;-64
2022/01/22 07:33:59;;;;;;;4.93;1.27;;;16.00;71.30;;;;;;4175095;28;20049;-64
2022/01/22 07:36:22;;;;;;;3.30;1.15;;;15.90;71.50;;;;;;4174253;28;20044;-64
2022/01/22 07:38:46;;;;;;;3.55;1.00;;;16.00;71.60;;;;;;4174163;28;20147;-63
2022/01/22 07:41:09;;;;;;;5.07;1.35;;;16.00;71.50;;;;;;4183914;28;20428;-66
2022/01/22 07:43:33;;;;;;;6.30;1.15;;;16.00;71.10;;;;;;4190958;28;20094;-64
2022/01/22 07:46:14;;;;;;;5.70;1.00;;;16.00;70.90;;;;;;4192379;28;20223;-65
2022/01/22 07:48:46;;;;;;;3.90;0.77;;;16.10;70.70;;;;;;4174202;28;20102;-65
2022/01/22 07:51:15;;;;;;;2.15;0.63;;;16.00;70.60;;;;;;4176082;28;20063;-65
2022/01/22 07:53:39;;;;;;;1.42;0.50;;;16.00;70.90;;;;;;4186059;28;20064;-65
2022/01/22 07:56:09;;;;;;;0.97;0.30;;;16.00;71.10;;;;;;4176659;28;20091;-65
2022/01/22 07:58:31;;;;;;;1.65;0.50;;;16.00;70.90;;;;;;4175245;28;20037;-65
2022/01/22 08:00:53;;;;;;;0.43;0.32;;;16.00;70.80;;;;;;4187844;28;20044;-65
2022/01/22 08:03:15;;;;;;;0.65;0.30;;;16.00;70.90;;;;;;4190478;28;20040;-65
2022/01/22 08:05:58;;;;;;;0.68;0.30;;;15.90;71.20;;;;;;4189917;28;20048;-65
2022/01/22 08:08:39;;;;;;;0.60;0.60;;;16.00;71.50;;;;;;4180982;28;20420;-65
2022/01/22 08:11:19;;;;;;;0.52;0.40;;;16.00;71.10;;;;;;4159122;28;20053;-65
2022/01/22 08:13:42;;;;;;;2.17;0.82;;;16.10;70.60;;;;;;4181940;28;20045;-65
2022/01/22 08:16:05;;;;;;;1.67;0.50;;;16.10;70.70;;;;;;4185809;28;20044;-65
2022/01/22 08:18:28;;;;;;;1.10;0.38;;;16.10;70.50;;;;;;4175715;28;20123;-65
2022/01/22 08:20:51;;;;;;;3.28;0.77;;;16.10;70.40;;;;;;4174411;28;20045;-65
2022/01/22 08:23:38;;;;;;;1.05;0.80;;;16.10;70.50;;;;;;4172870;28;20519;-65
2022/01/22 08:26:18;;;;;;;2.58;0.80;;;16.10;70.60;;;;;;4188494;28;20131;-65
2022/01/22 08:29:02;;;;;;;3.40;1.48;;;16.00;71.10;;;;;;4179065;28;20369;-64
2022/01/22 08:31:39;;;;;;;1.40;0.50;;;15.90;71.00;;;;;;4177618;28;20049;-64
2022/01/22 08:36:48;;;;;;;2.22;0.60;;;15.90;71.70;;;;;;4177489;28;20059;-64
2022/01/22 08:39:14;;;;;;;5.60;1.10;;;15.90;71.60;;;;;;4177599;28;20531;-65
2022/01/22 08:41:37;;;;;;;2.10;0.50;;;15.90;71.40;;;;;;4177239;28;20052;-64
2022/01/22 08:43:59;;;;;;;3.33;0.90;;;16.00;72.20;;;;;;4177685;28;20045;-64
2022/01/22 08:46:22;;;;;;;1.33;0.90;;;15.90;70.70;;;;;;4178788;28;20503;-65
2022/01/22 08:48:45;;;;;;;2.97;0.70;;;15.90;70.90;;;;;;4178035;28;20052;-64
2022/01/22 08:51:09;;;;;;;2.17;0.88;;;15.90;71.30;;;;;;4177204;28;20045;-64
2022/01/22 08:53:40;;;;;;;1.95;0.63;;;15.80;71.60;;;;;;4177086;28;20048;-64
2022/01/22 08:56:07;;;;;;;2.63;0.50;;;15.80;71.70;;;;;;4178432;28;20037;-64
2022/01/22 08:58:30;;;;;;;2.83;0.80;;;15.80;71.90;;;;;;4185108;28;22845;-64
2022/01/22 09:01:01;;;;;;;2.28;0.63;;;15.80;72.00;;;;;;4177141;28;20852;-64
2022/01/22 09:03:27;;;;;;;1.80;0.60;;;15.70;72.10;;;;;;4176378;28;20065;-64
2022/01/22 09:06:12;;;;;;;2.15;0.50;;;15.70;72.30;;;;;;4177155;28;20049;-64
2022/01/22 09:08:59;;;;;;;3.40;0.70;;;15.60;72.60;;;;;;4178974;28;20060;-64
2022/01/22 09:11:45;;;;;;;3.15;0.52;;;15.50;72.80;;;;;;4161691;28;20136;-64
2022/01/22 09:14:27;;;;;;;3.25;0.70;;;15.50;72.60;;;;;;4177905;28;20041;-65
2022/01/22 09:16:51;;;;;;;1.65;0.43;;;15.50;74.50;;;;;;4177890;28;20064;-65
2022/01/22 09:19:14;;;;;;;2.20;1.02;;;15.50;75.40;;;;;;4178027;28;20041;-64
2022/01/22 09:21:41;;;;;;;2.33;0.45;;;15.50;75.70;;;;;;4177677;28;20129;-64
2022/01/22 09:24:05;;;;;;;2.00;0.90;;;15.60;75.60;;;;;;4176740;28;20048;-64
2022/01/22 09:26:28;;;;;;;1.42;0.32;;;15.70;75.10;;;;;;4176762;28;20528;-64
2022/01/22 09:28:52;;;;;;;1.30;0.50;;;15.80;75.10;;;;;;4178286;28;20045;-64
2022/01/22 09:31:16;;;;;;;2.55;0.60;;;15.80;76.60;;;;;;4175208;28;20503;-64
2022/01/22 09:33:40;;;;;;;1.15;0.40;;;15.90;77.10;;;;;;4174752;28;20045;-65
2022/01/22 09:36:22;;;;;;;2.60;0.77;;;15.90;77.30;;;;;;4174034;28;20160;-65
2022/01/22 09:38:47;;;;;;;2.35;0.73;;;15.90;76.90;;;;;;4175102;28;20053;-65
2022/01/22 09:41:46;;;;;;;2.85;0.40;;;15.90;76.10;;;;;;4139156;28;20054;-65
2022/01/22 09:44:55;;;;;;;1.50;0.35;;;15.80;76.60;;;;;;4170872;28;20048;-66
2022/01/22 09:47:49;;;;;;;2.42;0.50;;;15.90;79.20;;;;;;4175093;28;20377;-66
2022/01/22 09:50:20;;;;;;;2.72;0.40;;;15.90;81.00;;;;;;4175343;28;20473;-67
2022/01/22 09:52:52;;;;;;;2.80;0.50;;;15.90;80.10;;;;;;4174931;28;20084;-66
2022/01/22 09:55:34;;;;;;;3.22;0.68;;;15.90;80.90;;;;;;4174969;28;20052;-67
2022/01/22 09:58:09;;;;;;;2.15;0.32;;;15.90;80.10;;;;;;4173380;28;20056;-66
2022/01/22 10:01:21;;;;;;;1.40;0.45;;;15.90;81.20;;;;;;4174134;28;20058;-66
2022/01/22 10:03:45;;;;;;;1.45;0.32;;;15.80;81.10;;;;;;4173084;28;20045;-66
2022/01/22 10:06:32;;;;;;;3.78;0.70;;;15.80;81.10;;;;;;4172663;28;20130;-66
2022/01/22 10:09:25;;;;;;;1.25;0.20;;;15.90;81.10;;;;;;4174371;28;20473;-66
2022/01/22 10:12:14;;;;;;;1.33;0.40;;;16.20;79.60;;;;;;4167636;28;20053;-67
2022/01/22 10:15:08;;;;;;;2.10;0.38;;;16.70;76.50;;;;;;4174565;28;20049;-66
2022/01/22 10:17:42;;;;;;;1.75;0.40;;;17.20;74.20;;;;;;4174527;28;20048;-65
2022/01/22 10:20:26;;;;;;;0.70;0.20;;;17.60;71.50;;;;;;4174758;28;20053;-67
2022/01/22 10:22:49;;;;;;;2.42;0.43;;;18.00;70.40;;;;;;4174574;28;20495;-65
2022/01/22 10:25:21;;;;;;;1.25;0.43;;;18.30;68.10;;;;;;4175092;28;20496;-66
2022/01/22 10:27:47;;;;;;;2.15;0.40;;;18.50;65.80;;;;;;4174207;28;20057;-65
2022/01/22 10:30:14;;;;;;;2.53;0.35;;;18.60;65.80;;;;;;4174798;28;20139;-65
2022/01/22 10:32:45;;;;;;;1.35;0.32;;;18.70;65.70;;;;;;4174425;28;20060;-64
2022/01/22 10:35:29;;;;;;;2.93;0.40;;;18.70;66.00;;;;;;4173694;28;20057;-64
2022/01/22 10:38:39;;;;;;;3.60;0.57;;;18.60;65.30;;;;;;4174479;28;20088;-64
2022/01/22 10:41:06;;;;;;;2.10;0.60;;;18.50;66.20;;;;;;4174387;28;20063;-64
2022/01/22 10:43:31;;;;;;;2.47;0.70;;;18.50;66.80;;;;;;4174660;28;20057;-64
2022/01/22 10:46:08;;;;;;;2.63;1.17;;;18.30;68.00;;;;;;4174147;28;20103;-63
2022/01/22 10:48:31;;;;;;;3.00;1.08;;;18.20;67.50;;;;;;4173242;28;20484;-64
2022/01/22 10:51:07;;;;;;;1.35;0.90;;;18.10;69.40;;;;;;4174679;28;20439;-64
2022/01/22 10:53:44;;;;;;;2.72;1.77;;;17.90;70.20;;;;;;4173793;28;20049;-66
2022/01/22 10:56:07;;;;;;;4.55;1.80;;;17.80;71.10;;;;;;4174248;28;20132;-64
2022/01/22 10:58:30;;;;;;;4.32;3.92;;;17.70;71.60;;;;;;4173563;28;20049;-65
2022/01/22 11:00:59;;;;;;;3.42;1.13;;;17.70;71.90;;;;;;4174032;28;20136;-64
2022/01/22 11:03:22;;;;;;;3.42;1.00;;;17.70;71.50;;;;;;4173919;28;20447;-63
2022/01/22 11:05:45;;;;;;;3.17;0.82;;;17.80;71.60;;;;;;4174062;28;20485;-65
2022/01/22 11:08:13;;;;;;;1.83;0.70;;;17.80;71.00;;;;;;4174468;28;20056;-65
2022/01/22 11:10:35;;;;;;;3.72;0.55;;;17.80;71.20;;;;;;4174048;28;20412;-66
2022/01/22 11:12:57;;;;;;;3.88;0.93;;;17.80;70.80;;;;;;4174459;28;20477;-66
2022/01/22 11:15:19;;;;;;;1.80;0.60;;;17.80;71.20;;;;;;4173331;28;20063;-66
2022/01/22 11:17:41;;;;;;;3.53;0.65;;;17.70;71.30;;;;;;4174178;28;20575;-66
2022/01/22 11:20:05;;;;;;;4.47;0.70;;;17.70;71.00;;;;;;4173351;28;20045;-66
2022/01/22 11:22:29;;;;;;;6.75;0.82;;;17.70;71.30;;;;;;4173748;28;20197;-65
2022/01/22 11:24:54;;;;;;;4.25;0.63;;;17.70;70.90;;;;;;4173568;28;20539;-65
2022/01/22 11:27:18;;;;;;;2.15;0.85;;;17.80;71.40;;;;;;4172983;28;20996;-65
2022/01/22 11:29:47;;;;;;;1.75;0.60;;;17.80;71.10;;;;;;4173494;28;20141;-65
2022/01/22 11:32:12;;;;;;;2.33;0.82;;;17.80;69.50;;;;;;4172675;28;20392;-65
2022/01/22 11:34:37;;;;;;;5.85;0.63;;;17.90;69.50;;;;;;4173941;28;20061;-65
2022/01/22 11:37:07;;;;;;;1.77;0.85;;;17.90;68.70;;;;;;4173414;28;21031;-66
2022/01/22 11:39:29;;;;;;;2.63;1.00;;;17.90;69.00;;;;;;4173416;28;20115;-65
2022/01/22 11:41:58;;;;;;;4.13;0.80;;;17.90;69.60;;;;;;4172940;28;20874;-65
2022/01/22 11:44:26;;;;;;;1.25;0.70;;;17.80;69.60;;;;;;4172692;28;20056;-65
2022/01/22 11:46:58;;;;;;;4.10;0.90;;;17.70;70.30;;;;;;4173034;28;20041;-66
2022/01/22 11:49:25;;;;;;;0.70;0.70;;;17.70;70.80;;;;;;4173086;28;20076;-65
2022/01/22 11:51:49;;;;;;;3.90;0.93;;;17.70;70.40;;;;;;4173218;28;20048;-65
2022/01/22 11:54:15;;;;;;;4.03;0.73;;;17.60;70.00;;;;;;4172708;28;20091;-66
2022/01/22 11:56:48;;;;;;;1.25;0.70;;;17.60;69.60;;;;;;4172718;28;20099;-65
2022/01/22 11:59:23;;;;;;;5.97;1.58;;;17.60;69.80;;;;;;4171903;28;20067;-66
2022/01/22 12:02:17;;;;;;;1.10;0.70;;;17.60;70.40;;;;;;4170800;28;20126;-65
2022/01/22 12:04:49;;;;;;;4.05;0.73;;;17.60;70.80;;;;;;4172893;28;20055;-65
2022/01/22 12:07:17;;;;;;;2.28;0.70;;;17.50;70.80;;;;;;4172008;28;20447;-66
2022/01/22 12:09:50;;;;;;;2.80;1.20;;;17.50;70.00;;;;;;4172427;28;20194;-66
2022/01/22 12:15:06;;;;;;;7.07;1.30;;;17.50;69.60;;;;;;4172169;28;20051;-66
2022/01/22 12:18:06;;;;;;;5.10;1.48;;;17.40;69.70;;;;;;4173200;28;20045;-65
2022/01/22 12:23:40;;;;;;;2.45;0.80;;;17.50;69.10;;;;;;4172492;28;20084;-65
2022/01/22 12:26:04;;;;;;;4.15;1.25;;;17.50;69.50;;;;;;4172442;28;20045;-65
2022/01/22 12:28:38;;;;;;;5.00;1.48;;;17.50;69.10;;;;;;4172882;28;20354;-65
2022/01/22 12:31:04;;;;;;;5.68;1.25;;;17.50;68.90;;;;;;4172488;28;20051;-65
2022/01/22 12:33:46;;;;;;;3.17;1.20;;;17.50;69.10;;;;;;4172801;28;20465;-65
2022/01/22 12:36:11;;;;;;;5.63;1.23;;;17.50;68.60;;;;;;4172970;28;20053;-65
2022/01/22 12:38:38;;;;;;;6.97;1.45;;;17.50;68.70;;;;;;4173118;28;20055;-66
2022/01/22 12:41:14;;;;;;;3.47;1.42;;;17.50;68.70;;;;;;4172409;28;20059;-66
2022/01/22 12:43:37;;;;;;;9.75;1.63;;;17.50;68.80;;;;;;4172349;28;20044;-65
2022/01/22 12:46:03;;;;;;;2.83;1.30;;;17.50;68.90;;;;;;4171499;28;20061;-65
2022/01/22 12:48:30;;;;;;;8.07;1.52;;;17.60;68.80;;;;;;4172663;28;20057;-65
2022/01/22 12:50:52;;;;;;;9.15;1.95;;;17.60;68.40;;;;;;4172527;28;20047;-65
2022/01/22 12:53:17;;;;;;;6.75;1.58;;;17.60;67.90;;;;;;4173178;28;20056;-64
2022/01/22 12:58:32;;;;;;;3.75;1.33;;;17.60;67.70;;;;;;4172986;28;20166;-65
2022/01/22 13:01:10;;;;;;;3.53;1.23;;;17.60;68.20;;;;;;4172741;28;20872;-65
2022/01/22 13:03:35;;;;;;;7.90;1.75;;;17.60;68.30;;;;;;4171289;28;20044;-66
2022/01/22 13:05:57;;;;;;;6.68;1.80;;;17.60;67.70;;;;;;4171987;28;21099;-65
2022/01/22 13:08:27;;;;;;;4.30;1.27;;;17.60;67.60;;;;;;4171458;28;20075;-66
2022/01/22 13:11:17;;;;;;;9.40;1.55;;;17.60;68.20;;;;;;4171920;28;20041;-66
2022/01/22 13:13:42;;;;;;;5.93;1.67;;;17.50;68.00;;;;;;4174672;28;20052;-65
2022/01/22 13:16:05;;;;;;;8.93;1.58;;;17.50;68.10;;;;;;4175498;28;20055;-66
2022/01/22 13:18:41;;;;;;;8.10;1.63;;;17.40;68.60;;;;;;4175247;28;20112;-65
2022/01/22 13:21:06;;;;;;;2.40;1.27;;;17.40;68.00;;;;;;4174980;28;20040;-66
2022/01/22 13:23:29;;;;;;;9.23;2.28;;;17.40;68.70;;;;;;4175380;28;20132;-65
2022/01/22 13:25:53;;;;;;;8.32;1.98;;;17.30;68.70;;;;;;4175128;28;20060;-65
2022/01/22 13:28:16;;;;;;;7.78;1.67;;;17.30;69.60;;;;;;4175416;28;20044;-65
2022/01/22 13:30:44;;;;;;;6.20;2.25;;;17.30;69.80;;;;;;4175286;28;20068;-65
2022/01/22 13:33:16;;;;;;;6.28;1.80;;;17.20;69.50;;;;;;4175613;28;20053;-65
2022/01/22 13:35:57;;;;;;;9.82;2.60;;;17.20;69.90;;;;;;4174912;28;20049;-65
2022/01/22 13:50:17;;;;;;;7.80;2.30;;;17.20;69.60;;;;;;4174912;28;20105;-66
2022/01/22 13:53:01;;;;;;;8.90;2.50;;;17.30;69.00;;;;;;4174460;28;20052;-66
2022/01/22 13:55:42;;;;;;;2.92;1.80;;;17.40;69.40;;;;;;4175022;28;20052;-66
2022/01/22 13:58:18;;;;;;;8.25;1.60;;;17.40;69.20;;;;;;4175017;28;20048;-66
2022/01/22 14:01:05;;;;;;;3.92;1.35;;;17.40;69.00;;;;;;4174116;28;20048;-66
2022/01/22 14:03:45;;;;;;;6.47;1.80;;;17.30;69.00;;;;;;4174475;28;20040;-65
2022/01/22 14:06:32;;;;;;;10.50;3.83;;;17.20;69.50;;;;;;4175075;28;20177;-66
2022/01/22 14:08:56;;;;;;;7.53;1.83;;;17.30;69.10;;;;;;4174710;28;20063;-66
2022/01/22 14:11:37;;;;;;;7.18;1.40;;;17.30;68.40;;;;;;4174595;28;20114;-65
2022/01/22 14:14:18;;;;;;;;;;;17.40;68.00;;;;;;4175418;28;20059;-66
2022/01/22 14:16:45;;;;;;;4.95;1.40;;;17.40;68.60;;;;;;4174070;28;20007;-65
2022/01/22 14:19:07;;;;;;;6.95;1.77;;;17.40;67.70;;;;;;4174326;28;20048;-66
2022/01/22 14:21:29;;;;;;;6.30;1.75;;;17.40;67.40;;;;;;4174582;28;20155;-65
2022/01/22 14:23:52;;;;;;;8.90;1.60;;;17.30;67.60;;;;;;4174294;28;20174;-65